Time;durP1;ratioP1;P1;durP2;ratioP2;P2;SDS_P1;SDS_P2;PMS_P1;PMS_P2;Temp;Humidity;BMP_temperature;BMP_pressure;BME280_temperature;BME280_humidity;BME280_pressure;Samples;Min_cycle;Max_cycle;Signal;HPM_P1;HPM_P2
2023/02/15 00:01:52;;;;;;;103.10;44.70;;;;;;;6.12;86.42;102122.30;677041;1261;138714;-91
2023/02/15 00:16:59;;;;;;;106.80;49.60;;;;;;;6.31;86.93;102114.45;677161;1262;140114;-89
2023/02/15 00:32:03;;;;;;;74.00;32.00;;;;;;;6.28;87.30;102108.80;676512;1264;138838;-89
2023/02/15 00:47:06;;;;;;;73.50;33.90;;;;;;;6.25;87.38;102089.30;676055;1263;139415;-90
2023/02/15 01:02:09;;;;;;;68.10;32.50;;;;;;;6.27;86.81;102080.52;676447;1263;138789;-93
2023/02/15 01:17:13;;;;;;;73.80;37.40;;;;;;;6.11;87.04;102068.30;674881;1266;138729;-93
2023/02/15 01:32:16;;;;;;;62.20;30.20;;;;;;;6.02;87.94;102067.64;677761;1259;139201;-91
2023/02/15 01:47:25;;;;;;;60.70;28.90;;;;;;;5.87;87.57;102061.42;675395;1264;139327;-89
2023/02/15 02:02:34;;;;;;;64.60;29.50;;;;;;;5.76;87.95;102061.34;674518;1256;139106;-92
2023/02/15 02:17:43;;;;;;;70.40;32.40;;;;;;;5.92;88.29;102053.59;675605;1262;139054;-93
2023/02/15 02:33:20;;;;;;;67.80;31.50;;;;;;;5.94;88.16;102041.19;675357;1262;139034;-91
2023/02/15 02:48:28;;;;;;;64.80;34.20;;;;;;;6.07;88.32;102028.02;674135;1262;138920;-91
2023/02/15 03:03:36;;;;;;;62.60;29.70;;;;;;;6.03;88.80;102022.25;675344;1262;139071;-91
2023/02/15 03:18:52;;;;;;;93.90;46.50;;;;;;;6.10;89.02;102019.16;673731;1260;138855;-91
2023/02/15 03:34:04;;;;;;;63.60;34.00;;;;;;;6.11;88.71;102007.70;674763;1262;139834;-90
2023/02/15 03:49:14;;;;;;;71.00;36.30;;;;;;;5.97;88.84;102000.59;676818;1260;139040;-91
2023/02/15 04:04:20;;;;;;;70.90;35.00;;;;;;;5.99;88.76;102006.41;675697;1262;138670;-92
2023/02/15 04:34:49;;;;;;;75.40;35.60;;;;;;;5.98;89.48;101995.19;676199;1260;138741;-92
2023/02/15 04:49:52;;;;;;;74.80;34.60;;;;;;;5.93;89.46;101991.02;677402;1262;138885;-85
2023/02/15 05:04:55;;;;;;;98.70;42.60;;;;;;;5.87;89.98;101983.10;677184;1261;138878;-92
2023/02/15 05:19:58;;;;;;;107.60;47.80;;;;;;;5.78;90.36;101991.80;676348;1259;140252;-87
2023/02/15 05:35:02;;;;;;;95.30;43.00;;;;;;;5.85;90.72;101991.16;675761;1262;138964;-91
2023/02/15 05:50:06;;;;;;;100.20;41.40;;;;;;;5.93;90.83;101985.98;675467;1262;138159;-89
2023/02/15 06:05:09;;;;;;;93.30;42.90;;;;;;;6.01;90.33;101981.88;676571;1264;138857;-91
2023/02/15 06:20:13;;;;;;;221.70;90.20;;;;;;;6.04;91.16;101976.00;675761;1262;138309;-91
2023/02/15 06:35:16;;;;;;;144.60;74.20;;;;;;;6.08;91.55;101969.61;673705;1267;139336;-91
2023/02/15 06:50:19;;;;;;;142.30;61.50;;;;;;;6.06;91.71;101973.83;676646;1259;138627;-90
2023/02/15 07:05:24;;;;;;;344.30;131.60;;;;;;;6.25;91.90;101968.71;675994;1262;137585;-89
2023/02/15 07:20:28;;;;;;;99.20;41.10;;;;;;;6.20;91.69;101955.03;675457;1265;139623;-92
2023/02/15 07:35:33;;;;;;;54.00;27.10;;;;;;;6.37;91.80;101953.95;676089;1262;137261;-91
2023/02/15 07:50:36;;;;;;;76.80;37.20;;;;;;;6.45;91.54;101952.52;677361;1263;138203;-93
2023/02/15 08:05:41;;;;;;;74.10;32.00;;;;;;;6.49;92.13;101928.05;675484;1265;138124;-88
2023/02/15 08:20:49;;;;;;;69.20;31.70;;;;;;;6.54;92.96;101913.40;674214;1260;139119;-90
2023/02/15 08:35:53;;;;;;;85.30;36.10;;;;;;;6.48;94.13;101901.13;676172;1264;138567;-87
2023/02/15 08:50:56;;;;;;;92.20;39.40;;;;;;;6.40;96.03;101892.80;676662;1265;138338;-90
2023/02/15 09:06:00;;;;;;;84.40;37.80;;;;;;;6.47;96.14;101880.30;679965;1260;138273;-88
2023/02/15 09:21:07;;;;;;;92.20;39.80;;;;;;;6.47;96.16;101869.21;680716;1266;137135;-87
2023/02/15 09:36:22;;;;;;;71.80;33.70;;;;;;;6.55;95.34;101865.68;675820;1262;138584;-90
2023/02/15 09:51:45;;;;;;;42.10;22.00;;;;;;;6.63;92.28;101863.08;673516;1281;139049;-90
2023/02/15 10:06:56;;;;;;;44.00;23.20;;;;;;;6.47;89.80;101841.38;675013;1263;138994;-90
2023/02/15 10:22:18;;;;;;;56.70;31.40;;;;;;;6.38;88.01;101843.71;675344;1263;138783;-90
2023/02/15 10:38:07;;;;;;;58.00;30.60;;;;;;;6.39;87.99;101834.42;676636;1265;138571;-90
2023/02/15 10:53:10;;;;;;;94.20;41.10;;;;;;;6.19;86.96;101823.36;674273;1263;138315;-90
2023/02/15 11:08:14;;;;;;;63.80;34.20;;;;;;;6.31;86.66;101805.10;675815;1263;137680;-90
2023/02/15 11:23:18;;;;;;;59.20;31.10;;;;;;;6.46;86.45;101789.84;674968;1273;140162;-91
2023/02/15 11:38:26;;;;;;;52.40;26.70;;;;;;;6.43;85.35;101792.92;675449;1272;139491;-91
2023/02/15 11:53:33;;;;;;;48.90;26.30;;;;;;;6.36;85.21;101773.41;675255;1263;139123;-91
2023/02/15 12:08:40;;;;;;;59.90;31.20;;;;;;;6.32;85.17;101762.66;674747;1268;138385;-86
2023/02/15 12:23:52;;;;;;;85.00;57.00;;;;;;;6.28;84.47;101751.70;675185;1264;138506;-89
2023/02/15 12:39:20;;;;;;;57.10;30.00;;;;;;;6.38;84.97;101736.51;674804;1264;139116;-90
2023/02/15 12:54:38;;;;;;;;;;;;;;;6.22;85.35;101725.23;673576;1264;139121;-89
2023/02/15 13:09:42;;;;;;;56.00;29.90;;;;;;;6.32;85.61;101706.02;674372;1265;124353;-87
2023/02/15 13:25:28;;;;;;;116.30;58.40;;;;;;;6.50;85.55;101685.52;674824;1263;138340;-91
2023/02/15 13:40:58;;;;;;;64.10;34.60;;;;;;;6.53;85.23;101669.52;673961;1261;139136;-89
2023/02/15 13:56:39;;;;;;;49.70;24.90;;;;;;;6.51;85.22;101656.27;673778;1261;138346;-90
2023/02/15 14:11:55;;;;;;;55.40;28.90;;;;;;;6.61;85.69;101653.83;674184;1260;138311;-92
2023/02/15 14:27:24;;;;;;;51.00;26.90;;;;;;;6.53;85.03;101639.15;674729;1264;139093;-90
2023/02/15 14:42:43;;;;;;;69.00;34.20;;;;;;;6.56;85.32;101626.67;675296;1265;139090;-91
2023/02/15 14:57:58;;;;;;;53.30;28.50;;;;;;;6.52;85.92;101617.48;674076;1264;138302;-91
2023/02/15 15:13:30;;;;;;;49.40;24.10;;;;;;;6.51;86.27;101600.83;674389;1268;139209;-89
2023/02/15 15:28:34;;;;;;;58.40;27.40;;;;;;;6.60;86.23;101587.16;674627;1264;138220;-88
2023/02/15 15:43:55;;;;;;;57.40;28.50;;;;;;;6.55;85.93;101569.67;676646;1262;138285;-93
2023/02/15 15:59:07;;;;;;;74.40;33.40;;;;;;;6.55;86.28;101551.80;676326;1261;138924;-91
2023/02/15 16:14:29;;;;;;;61.40;28.70;;;;;;;6.45;87.21;101533.00;677858;1269;138648;-90
2023/02/15 16:29:34;;;;;;;86.80;41.10;;;;;;;6.37;87.38;101525.73;676340;1259;138562;-91
2023/02/15 16:44:40;;;;;;;57.80;29.10;;;;;;;6.37;87.71;101509.09;675837;1263;138870;-91
2023/02/15 16:59:50;;;;;;;74.20;35.80;;;;;;;6.36;87.56;101503.23;675011;1259;138375;-91
2023/02/15 17:14:54;;;;;;;58.10;28.80;;;;;;;6.35;87.99;101486.60;673936;1263;138695;-89
2023/02/15 17:30:03;;;;;;;72.50;33.20;;;;;;;6.19;88.12;101475.21;673765;1264;138847;-88
2023/02/15 17:45:08;;;;;;;72.60;34.50;;;;;;;6.14;89.11;101457.42;675313;1260;139554;-92
2023/02/15 18:15:37;;;;;;;85.10;35.90;;;;;;;5.92;89.10;101447.17;675179;1265;139171;-91
2023/02/15 18:30:42;;;;;;;85.40;38.70;;;;;;;5.90;89.33;101450.75;674140;1263;138780;-92
2023/02/15 18:45:46;;;;;;;101.10;41.00;;;;;;;5.95;90.02;101456.75;674180;1262;138673;-91
2023/02/15 19:00:51;;;;;;;97.90;39.90;;;;;;;5.97;89.83;101452.35;674644;1264;138709;-92
2023/02/15 19:15:55;;;;;;;131.20;53.80;;;;;;;5.99;90.27;101448.92;674845;1260;139212;-91
2023/02/15 19:30:59;;;;;;;80.50;35.20;;;;;;;5.89;90.34;101431.55;674453;1264;138760;-88
2023/02/15 19:46:03;;;;;;;88.50;35.80;;;;;;;5.92;90.79;101421.83;674583;1263;138584;-86
2023/02/15 20:01:12;;;;;;;86.90;37.60;;;;;;;5.82;91.76;101407.73;674919;1262;139272;-90
2023/02/15 20:16:16;;;;;;;99.70;37.50;;;;;;;5.79;91.62;101399.02;673756;1263;140157;-91
2023/02/15 20:31:21;;;;;;;108.30;43.40;;;;;;;5.73;91.01;101374.14;674866;1262;139207;-89
2023/02/15 20:46:28;;;;;;;105.00;38.70;;;;;;;5.69;92.58;101343.81;674604;1259;140042;-91
2023/02/15 21:01:32;;;;;;;110.50;44.00;;;;;;;5.77;91.54;101350.86;674850;1259;139381;-90
2023/02/15 21:16:36;;;;;;;103.60;39.40;;;;;;;5.73;91.46;101362.35;673572;1263;138969;-88
2023/02/15 21:31:40;;;;;;;109.30;44.40;;;;;;;5.63;92.66;101349.69;674936;1264;139696;-90
2023/02/15 22:02:24;;;;;;;103.30;38.60;;;;;;;5.74;91.60;101308.52;674229;1263;139325;-88
2023/02/15 22:17:28;;;;;;;104.50;39.60;;;;;;;5.64;91.44;101294.79;674783;1263;139343;-90
2023/02/15 22:32:32;;;;;;;94.40;35.70;;;;;;;5.67;92.02;101282.27;678197;1263;139590;-90
2023/02/15 22:47:52;;;;;;;103.40;40.90;;;;;;;5.74;92.31;101260.23;676351;1261;139203;-90
2023/02/15 23:02:55;;;;;;;107.70;37.50;;;;;;;5.78;92.10;101250.34;674536;1264;138915;-90
2023/02/15 23:18:17;;;;;;;118.40;42.40;;;;;;;5.75;92.58;101231.05;673461;1265;140498;-88
2023/02/15 23:33:23;;;;;;;120.60;41.00;;;;;;;5.70;94.23;101229.19;674930;1263;137788;-90
2023/02/15 23:48:33;;;;;;;112.80;41.20;;;;;;;5.55;94.97;101223.58;673024;1264;138781;-90
